sensor_id;sensor_type;location;lat;lon;timestamp;P1;durP1;ratioP1;P2;durP2;ratioP2
75758;SDS011;64371;47.566;19.086;2023-02-28T00:01:24;19.83;;;9.07;;
75758;SDS011;64371;47.566;19.086;2023-02-28T00:04:31;19.50;;;9.13;;
75758;SDS011;64371;47.566;19.086;2023-02-28T00:07:36;23.08;;;10.10;;
75758;SDS011;64371;47.566;19.086;2023-02-28T00:10:51;18.23;;;8.83;;
75758;SDS011;64371;47.566;19.086;2023-02-28T00:13:59;23.35;;;10.00;;
75758;SDS011;64371;47.566;19.086;2023-02-28T00:17:04;22.60;;;10.32;;
75758;SDS011;64371;47.566;19.086;2023-02-28T00:20:17;21.92;;;9.60;;
75758;SDS011;64371;47.566;19.086;2023-02-28T00:23:20;19.30;;;9.07;;
75758;SDS011;64371;47.566;19.086;2023-02-28T00:26:24;20.97;;;9.73;;
75758;SDS011;64371;47.566;19.086;2023-02-28T00:29:34;21.65;;;9.57;;
75758;SDS011;64371;47.566;19.086;2023-02-28T00:33:01;24.98;;;10.10;;
75758;SDS011;64371;47.566;19.086;2023-02-28T00:36:11;22.48;;;9.55;;
75758;SDS011;64371;47.566;19.086;2023-02-28T00:39:16;23.85;;;10.98;;
75758;SDS011;64371;47.566;19.086;2023-02-28T00:42:23;27.00;;;10.50;;
75758;SDS011;64371;47.566;19.086;2023-02-28T00:45:35;23.60;;;9.50;;
75758;SDS011;64371;47.566;19.086;2023-02-28T00:48:38;19.70;;;9.32;;
75758;SDS011;64371;47.566;19.086;2023-02-28T00:51:52;20.48;;;9.40;;
75758;SDS011;64371;47.566;19.086;2023-02-28T00:55:06;20.98;;;10.02;;
75758;SDS011;64371;47.566;19.086;2023-02-28T00:58:11;23.10;;;10.03;;
75758;SDS011;64371;47.566;19.086;2023-02-28T01:01:21;21.35;;;9.85;;
75758;SDS011;64371;47.566;19.086;2023-02-28T01:04:34;20.05;;;10.23;;
75758;SDS011;64371;47.566;19.086;2023-02-28T01:07:37;20.77;;;10.50;;
75758;SDS011;64371;47.566;19.086;2023-02-28T01:10:53;22.75;;;9.73;;
75758;SDS011;64371;47.566;19.086;2023-02-28T01:14:06;22.87;;;10.00;;
75758;SDS011;64371;47.566;19.086;2023-02-28T01:17:09;20.85;;;9.80;;
75758;SDS011;64371;47.566;19.086;2023-02-28T01:20:16;21.70;;;10.45;;
75758;SDS011;64371;47.566;19.086;2023-02-28T01:23:21;20.77;;;10.05;;
75758;SDS011;64371;47.566;19.086;2023-02-28T01:26:37;21.73;;;9.82;;
75758;SDS011;64371;47.566;19.086;2023-02-28T01:29:44;21.87;;;11.03;;
75758;SDS011;64371;47.566;19.086;2023-02-28T01:32:58;21.08;;;10.23;;
75758;SDS011;64371;47.566;19.086;2023-02-28T01:36:03;21.75;;;10.57;;
75758;SDS011;64371;47.566;19.086;2023-02-28T01:39:13;19.10;;;9.50;;
75758;SDS011;64371;47.566;19.086;2023-02-28T01:42:21;22.38;;;10.43;;
75758;SDS011;64371;47.566;19.086;2023-02-28T01:45:28;19.43;;;10.37;;
75758;SDS011;64371;47.566;19.086;2023-02-28T01:51:56;24.55;;;10.60;;
75758;SDS011;64371;47.566;19.086;2023-02-28T01:55:02;21.95;;;10.65;;
75758;SDS011;64371;47.566;19.086;2023-02-28T01:58:17;22.65;;;10.88;;
75758;SDS011;64371;47.566;19.086;2023-02-28T02:01:34;25.83;;;11.10;;
75758;SDS011;64371;47.566;19.086;2023-02-28T02:08:12;20.83;;;10.70;;
75758;SDS011;64371;47.566;19.086;2023-02-28T02:11:29;23.13;;;10.85;;
75758;SDS011;64371;47.566;19.086;2023-02-28T02:14:39;22.42;;;10.52;;
75758;SDS011;64371;47.566;19.086;2023-02-28T02:17:51;20.37;;;9.93;;
75758;SDS011;64371;47.566;19.086;2023-02-28T02:45:10;25.25;;;10.88;;
75758;SDS011;64371;47.566;19.086;2023-02-28T02:48:26;26.02;;;11.07;;
75758;SDS011;64371;47.566;19.086;2023-02-28T02:51:39;21.13;;;11.10;;
75758;SDS011;64371;47.566;19.086;2023-02-28T02:54:55;23.58;;;10.10;;
75758;SDS011;64371;47.566;19.086;2023-02-28T02:58:14;20.35;;;10.85;;
75758;SDS011;64371;47.566;19.086;2023-02-28T03:01:22;23.35;;;10.38;;
75758;SDS011;64371;47.566;19.086;2023-02-28T03:04:32;20.60;;;9.68;;
75758;SDS011;64371;47.566;19.086;2023-02-28T03:07:45;19.03;;;9.30;;
75758;SDS011;64371;47.566;19.086;2023-02-28T03:11:01;20.08;;;9.75;;
75758;SDS011;64371;47.566;19.086;2023-02-28T03:14:25;20.25;;;9.95;;
75758;SDS011;64371;47.566;19.086;2023-02-28T03:17:49;23.05;;;9.95;;
75758;SDS011;64371;47.566;19.086;2023-02-28T03:24:45;23.17;;;9.83;;
75758;SDS011;64371;47.566;19.086;2023-02-28T03:28:02;19.35;;;9.10;;
75758;SDS011;64371;47.566;19.086;2023-02-28T03:31:30;19.58;;;9.20;;
75758;SDS011;64371;47.566;19.086;2023-02-28T03:34:46;23.13;;;9.77;;
75758;SDS011;64371;47.566;19.086;2023-02-28T03:38:22;22.02;;;9.77;;
75758;SDS011;64371;47.566;19.086;2023-02-28T03:44:59;22.60;;;9.68;;
75758;SDS011;64371;47.566;19.086;2023-02-28T03:48:13;15.50;;;6.88;;
75758;SDS011;64371;47.566;19.086;2023-02-28T03:51:30;18.33;;;8.48;;
75758;SDS011;64371;47.566;19.086;2023-02-28T03:54:48;17.70;;;8.27;;
75758;SDS011;64371;47.566;19.086;2023-02-28T04:01:38;19.13;;;8.10;;
75758;SDS011;64371;47.566;19.086;2023-02-28T04:04:48;17.95;;;8.48;;
75758;SDS011;64371;47.566;19.086;2023-02-28T04:08:03;17.02;;;7.93;;
75758;SDS011;64371;47.566;19.086;2023-02-28T04:11:18;15.45;;;7.07;;
75758;SDS011;64371;47.566;19.086;2023-02-28T04:14:25;14.73;;;7.37;;
75758;SDS011;64371;47.566;19.086;2023-02-28T04:17:30;20.30;;;8.00;;
75758;SDS011;64371;47.566;19.086;2023-02-28T04:20:36;15.25;;;7.03;;
75758;SDS011;64371;47.566;19.086;2023-02-28T04:23:42;15.48;;;7.60;;
75758;SDS011;64371;47.566;19.086;2023-02-28T04:26:49;16.60;;;7.70;;
75758;SDS011;64371;47.566;19.086;2023-02-28T04:30:02;16.53;;;7.93;;
75758;SDS011;64371;47.566;19.086;2023-02-28T04:33:07;15.15;;;7.40;;
75758;SDS011;64371;47.566;19.086;2023-02-28T04:36:20;16.67;;;7.50;;
75758;SDS011;64371;47.566;19.086;2023-02-28T04:39:34;14.93;;;6.97;;
75758;SDS011;64371;47.566;19.086;2023-02-28T04:42:41;17.33;;;7.78;;
75758;SDS011;64371;47.566;19.086;2023-02-28T04:46:01;14.83;;;7.10;;
75758;SDS011;64371;47.566;19.086;2023-02-28T04:49:05;16.52;;;7.78;;
75758;SDS011;64371;47.566;19.086;2023-02-28T04:52:07;16.73;;;6.97;;
75758;SDS011;64371;47.566;19.086;2023-02-28T04:55:13;16.73;;;7.40;;
75758;SDS011;64371;47.566;19.086;2023-02-28T04:58:17;14.38;;;7.07;;
75758;SDS011;64371;47.566;19.086;2023-02-28T05:01:35;14.13;;;5.97;;
75758;SDS011;64371;47.566;19.086;2023-02-28T05:04:41;14.43;;;5.18;;
75758;SDS011;64371;47.566;19.086;2023-02-28T05:07:46;13.18;;;6.63;;
75758;SDS011;64371;47.566;19.086;2023-02-28T05:10:53;15.77;;;6.32;;
75758;SDS011;64371;47.566;19.086;2023-02-28T05:14:03;12.15;;;5.78;;
75758;SDS011;64371;47.566;19.086;2023-02-28T05:17:18;14.33;;;5.90;;
75758;SDS011;64371;47.566;19.086;2023-02-28T05:20:23;11.32;;;5.70;;
75758;SDS011;64371;47.566;19.086;2023-02-28T05:23:41;7.90;;;3.35;;
75758;SDS011;64371;47.566;19.086;2023-02-28T05:26:49;21.00;;;7.88;;
75758;SDS011;64371;47.566;19.086;2023-02-28T05:30:02;12.85;;;6.28;;
75758;SDS011;64371;47.566;19.086;2023-02-28T05:33:10;15.03;;;5.80;;
75758;SDS011;64371;47.566;19.086;2023-02-28T05:36:17;11.35;;;5.47;;
75758;SDS011;64371;47.566;19.086;2023-02-28T05:39:27;13.23;;;5.35;;
75758;SDS011;64371;47.566;19.086;2023-02-28T05:42:54;12.60;;;5.47;;
75758;SDS011;64371;47.566;19.086;2023-02-28T05:45:57;13.90;;;5.95;;
75758;SDS011;64371;47.566;19.086;2023-02-28T05:49:08;11.67;;;4.90;;
75758;SDS011;64371;47.566;19.086;2023-02-28T05:52:27;15.57;;;5.20;;
75758;SDS011;64371;47.566;19.086;2023-02-28T05:55:37;12.68;;;4.88;;
75758;SDS011;64371;47.566;19.086;2023-02-28T05:58:52;13.15;;;5.63;;
75758;SDS011;64371;47.566;19.086;2023-02-28T06:01:58;12.02;;;5.60;;
75758;SDS011;64371;47.566;19.086;2023-02-28T06:05:20;12.40;;;5.23;;
75758;SDS011;64371;47.566;19.086;2023-02-28T06:08:28;11.15;;;5.47;;
75758;SDS011;64371;47.566;19.086;2023-02-28T06:11:32;23.83;;;9.50;;
75758;SDS011;64371;47.566;19.086;2023-02-28T06:14:41;28.65;;;11.05;;
75758;SDS011;64371;47.566;19.086;2023-02-28T06:17:44;21.02;;;8.55;;
75758;SDS011;64371;47.566;19.086;2023-02-28T06:20:54;13.27;;;6.00;;
75758;SDS011;64371;47.566;19.086;2023-02-28T06:24:03;11.30;;;5.05;;
75758;SDS011;64371;47.566;19.086;2023-02-28T06:27:08;12.40;;;5.90;;
75758;SDS011;64371;47.566;19.086;2023-02-28T06:30:16;12.48;;;5.22;;
75758;SDS011;64371;47.566;19.086;2023-02-28T06:33:30;10.45;;;5.28;;
75758;SDS011;64371;47.566;19.086;2023-02-28T06:36:41;10.00;;;5.20;;
75758;SDS011;64371;47.566;19.086;2023-02-28T06:39:51;21.67;;;8.25;;
75758;SDS011;64371;47.566;19.086;2023-02-28T06:42:56;18.45;;;6.70;;
75758;SDS011;64371;47.566;19.086;2023-02-28T06:45:59;16.65;;;6.63;;
75758;SDS011;64371;47.566;19.086;2023-02-28T06:49:12;13.15;;;6.22;;
75758;SDS011;64371;47.566;19.086;2023-02-28T06:52:20;8.70;;;3.80;;
75758;SDS011;64371;47.566;19.086;2023-02-28T06:55:29;8.98;;;4.35;;
75758;SDS011;64371;47.566;19.086;2023-02-28T06:58:36;12.13;;;4.70;;
75758;SDS011;64371;47.566;19.086;2023-02-28T07:01:56;10.32;;;4.72;;
75758;SDS011;64371;47.566;19.086;2023-02-28T07:05:07;11.52;;;5.38;;
75758;SDS011;64371;47.566;19.086;2023-02-28T07:08:11;10.87;;;5.07;;
75758;SDS011;64371;47.566;19.086;2023-02-28T07:11:18;11.90;;;5.22;;
75758;SDS011;64371;47.566;19.086;2023-02-28T07:14:28;10.38;;;4.68;;
75758;SDS011;64371;47.566;19.086;2023-02-28T07:17:39;13.55;;;4.95;;
75758;SDS011;64371;47.566;19.086;2023-02-28T07:20:44;12.38;;;4.93;;
75758;SDS011;64371;47.566;19.086;2023-02-28T07:23:59;9.30;;;4.53;;
75758;SDS011;64371;47.566;19.086;2023-02-28T07:27:34;8.73;;;4.00;;
75758;SDS011;64371;47.566;19.086;2023-02-28T07:30:42;9.80;;;5.28;;
75758;SDS011;64371;47.566;19.086;2023-02-28T07:33:47;10.70;;;5.13;;
75758;SDS011;64371;47.566;19.086;2023-02-28T07:37:01;11.80;;;4.72;;
75758;SDS011;64371;47.566;19.086;2023-02-28T07:40:10;12.97;;;5.63;;
75758;SDS011;64371;47.566;19.086;2023-02-28T07:43:13;18.08;;;7.35;;
75758;SDS011;64371;47.566;19.086;2023-02-28T07:46:18;16.17;;;7.03;;
75758;SDS011;64371;47.566;19.086;2023-02-28T07:49:35;50.53;;;21.85;;
75758;SDS011;64371;47.566;19.086;2023-02-28T07:52:43;63.33;;;24.80;;
75758;SDS011;64371;47.566;19.086;2023-02-28T07:55:48;41.73;;;17.80;;
75758;SDS011;64371;47.566;19.086;2023-02-28T07:59:00;22.48;;;9.73;;
75758;SDS011;64371;47.566;19.086;2023-02-28T08:02:03;107.00;;;59.17;;
75758;SDS011;64371;47.566;19.086;2023-02-28T08:05:28;194.40;;;87.07;;
75758;SDS011;64371;47.566;19.086;2023-02-28T08:08:37;220.82;;;112.43;;
75758;SDS011;64371;47.566;19.086;2023-02-28T08:11:41;41.17;;;20.47;;
75758;SDS011;64371;47.566;19.086;2023-02-28T08:14:52;25.52;;;13.45;;
75758;SDS011;64371;47.566;19.086;2023-02-28T08:18:00;17.80;;;8.82;;
75758;SDS011;64371;47.566;19.086;2023-02-28T08:21:07;28.17;;;13.20;;
75758;SDS011;64371;47.566;19.086;2023-02-28T08:24:38;14.82;;;7.15;;
75758;SDS011;64371;47.566;19.086;2023-02-28T08:27:46;10.47;;;4.57;;
75758;SDS011;64371;47.566;19.086;2023-02-28T08:30:51;15.10;;;7.88;;
75758;SDS011;64371;47.566;19.086;2023-02-28T08:34:00;13.75;;;7.60;;
75758;SDS011;64371;47.566;19.086;2023-02-28T08:37:07;11.90;;;5.97;;
75758;SDS011;64371;47.566;19.086;2023-02-28T08:40:10;15.23;;;8.23;;
75758;SDS011;64371;47.566;19.086;2023-02-28T08:43:21;12.13;;;5.57;;
75758;SDS011;64371;47.566;19.086;2023-02-28T08:46:30;17.17;;;8.45;;
75758;SDS011;64371;47.566;19.086;2023-02-28T08:49:33;12.57;;;5.95;;
75758;SDS011;64371;47.566;19.086;2023-02-28T08:52:43;11.75;;;7.10;;
75758;SDS011;64371;47.566;19.086;2023-02-28T08:55:57;15.10;;;9.38;;
75758;SDS011;64371;47.566;19.086;2023-02-28T08:59:28;12.87;;;5.90;;
75758;SDS011;64371;47.566;19.086;2023-02-28T09:02:35;7.38;;;4.18;;
75758;SDS011;64371;47.566;19.086;2023-02-28T09:06:00;10.25;;;4.90;;
75758;SDS011;64371;47.566;19.086;2023-02-28T09:09:14;13.43;;;7.97;;
75758;SDS011;64371;47.566;19.086;2023-02-28T09:12:27;7.68;;;4.30;;
75758;SDS011;64371;47.566;19.086;2023-02-28T09:15:37;8.83;;;4.07;;
75758;SDS011;64371;47.566;19.086;2023-02-28T09:18:46;7.75;;;4.10;;
75758;SDS011;64371;47.566;19.086;2023-02-28T09:21:59;6.30;;;2.85;;
75758;SDS011;64371;47.566;19.086;2023-02-28T09:25:09;5.47;;;2.50;;
75758;SDS011;64371;47.566;19.086;2023-02-28T09:28:15;6.60;;;2.95;;
75758;SDS011;64371;47.566;19.086;2023-02-28T09:31:20;7.30;;;3.83;;
75758;SDS011;64371;47.566;19.086;2023-02-28T09:34:49;8.07;;;4.20;;
75758;SDS011;64371;47.566;19.086;2023-02-28T09:38:00;4.82;;;2.63;;
75758;SDS011;64371;47.566;19.086;2023-02-28T09:41:20;8.32;;;2.65;;
75758;SDS011;64371;47.566;19.086;2023-02-28T09:47:39;6.67;;;2.77;;
75758;SDS011;64371;47.566;19.086;2023-02-28T09:54:38;8.88;;;4.45;;
75758;SDS011;64371;47.566;19.086;2023-02-28T09:57:51;8.05;;;3.80;;
75758;SDS011;64371;47.566;19.086;2023-02-28T10:04:57;9.63;;;4.07;;
75758;SDS011;64371;47.566;19.086;2023-02-28T10:08:19;8.38;;;4.30;;
75758;SDS011;64371;47.566;19.086;2023-02-28T10:11:29;8.23;;;3.05;;
75758;SDS011;64371;47.566;19.086;2023-02-28T10:14:49;11.10;;;3.90;;
75758;SDS011;64371;47.566;19.086;2023-02-28T10:18:14;10.70;;;4.47;;
75758;SDS011;64371;47.566;19.086;2023-02-28T10:21:30;7.07;;;4.10;;
75758;SDS011;64371;47.566;19.086;2023-02-28T10:24:41;8.30;;;4.18;;
75758;SDS011;64371;47.566;19.086;2023-02-28T10:27:49;9.35;;;5.05;;
75758;SDS011;64371;47.566;19.086;2023-02-28T10:31:13;8.52;;;3.67;;
75758;SDS011;64371;47.566;19.086;2023-02-28T10:34:27;8.30;;;3.78;;
75758;SDS011;64371;47.566;19.086;2023-02-28T10:37:38;6.40;;;3.70;;
75758;SDS011;64371;47.566;19.086;2023-02-28T10:40:48;8.07;;;3.63;;
75758;SDS011;64371;47.566;19.086;2023-02-28T10:44:21;7.78;;;3.55;;
75758;SDS011;64371;47.566;19.086;2023-02-28T10:47:25;7.53;;;3.58;;
75758;SDS011;64371;47.566;19.086;2023-02-28T10:50:45;8.57;;;4.10;;
75758;SDS011;64371;47.566;19.086;2023-02-28T10:54:02;8.17;;;3.80;;
75758;SDS011;64371;47.566;19.086;2023-02-28T10:57:23;11.25;;;4.00;;
75758;SDS011;64371;47.566;19.086;2023-02-28T11:00:35;7.45;;;3.58;;
75758;SDS011;64371;47.566;19.086;2023-02-28T11:03:40;9.20;;;4.00;;
75758;SDS011;64371;47.566;19.086;2023-02-28T11:06:42;8.35;;;4.85;;
75758;SDS011;64371;47.566;19.086;2023-02-28T11:09:52;7.97;;;4.50;;
75758;SDS011;64371;47.566;19.086;2023-02-28T11:13:17;9.15;;;4.38;;
75758;SDS011;64371;47.566;19.086;2023-02-28T11:16:22;8.88;;;5.05;;
75758;SDS011;64371;47.566;19.086;2023-02-28T11:19:46;10.68;;;4.75;;
75758;SDS011;64371;47.566;19.086;2023-02-28T11:22:55;10.40;;;5.00;;
75758;SDS011;64371;47.566;19.086;2023-02-28T11:26:10;11.40;;;3.10;;
75758;SDS011;64371;47.566;19.086;2023-02-28T11:29:28;6.03;;;2.95;;
75758;SDS011;64371;47.566;19.086;2023-02-28T11:32:36;7.32;;;3.75;;
75758;SDS011;64371;47.566;19.086;2023-02-28T11:35:56;8.02;;;4.38;;
75758;SDS011;64371;47.566;19.086;2023-02-28T11:39:08;8.68;;;4.20;;
75758;SDS011;64371;47.566;19.086;2023-02-28T11:42:31;4.93;;;2.57;;
75758;SDS011;64371;47.566;19.086;2023-02-28T11:45:56;6.93;;;3.35;;
75758;SDS011;64371;47.566;19.086;2023-02-28T11:49:47;9.73;;;4.70;;
75758;SDS011;64371;47.566;19.086;2023-02-28T12:04:20;10.43;;;4.72;;
75758;SDS011;64371;47.566;19.086;2023-02-28T12:14:31;8.55;;;4.20;;
75758;SDS011;64371;47.566;19.086;2023-02-28T12:24:55;9.45;;;4.80;;
75758;SDS011;64371;47.566;19.086;2023-02-28T12:28:20;7.63;;;3.80;;
75758;SDS011;64371;47.566;19.086;2023-02-28T12:31:38;7.70;;;3.78;;
75758;SDS011;64371;47.566;19.086;2023-02-28T12:34:56;5.97;;;3.50;;
75758;SDS011;64371;47.566;19.086;2023-02-28T12:38:24;6.05;;;3.60;;
75758;SDS011;64371;47.566;19.086;2023-02-28T12:45:01;6.50;;;3.90;;
75758;SDS011;64371;47.566;19.086;2023-02-28T12:48:14;7.07;;;4.22;;
75758;SDS011;64371;47.566;19.086;2023-02-28T12:51:30;11.43;;;4.57;;
75758;SDS011;64371;47.566;19.086;2023-02-28T12:54:39;7.60;;;3.05;;
75758;SDS011;64371;47.566;19.086;2023-02-28T13:12:19;5.07;;;3.00;;
75758;SDS011;64371;47.566;19.086;2023-02-28T13:15:36;7.20;;;3.20;;
75758;SDS011;64371;47.566;19.086;2023-02-28T13:18:53;8.95;;;3.50;;
75758;SDS011;64371;47.566;19.086;2023-02-28T13:35:34;9.25;;;4.18;;
75758;SDS011;64371;47.566;19.086;2023-02-28T13:38:43;7.95;;;3.78;;
75758;SDS011;64371;47.566;19.086;2023-02-28T13:46:31;5.70;;;3.00;;
75758;SDS011;64371;47.566;19.086;2023-02-28T13:52:24;6.25;;;3.60;;
75758;SDS011;64371;47.566;19.086;2023-02-28T13:59:06;8.90;;;4.07;;
75758;SDS011;64371;47.566;19.086;2023-02-28T14:02:45;7.88;;;4.00;;
75758;SDS011;64371;47.566;19.086;2023-02-28T14:06:09;10.10;;;4.32;;
75758;SDS011;64371;47.566;19.086;2023-02-28T14:09:23;9.48;;;4.25;;
75758;SDS011;64371;47.566;19.086;2023-02-28T14:16:20;6.87;;;3.63;;
75758;SDS011;64371;47.566;19.086;2023-02-28T14:19:37;7.03;;;3.97;;
75758;SDS011;64371;47.566;19.086;2023-02-28T14:32:45;5.40;;;2.70;;
75758;SDS011;64371;47.566;19.086;2023-02-28T14:39:21;7.35;;;2.92;;
75758;SDS011;64371;47.566;19.086;2023-02-28T14:42:36;7.40;;;3.65;;
75758;SDS011;64371;47.566;19.086;2023-02-28T14:46:02;6.85;;;3.78;;
75758;SDS011;64371;47.566;19.086;2023-02-28T14:49:16;9.20;;;4.77;;
75758;SDS011;64371;47.566;19.086;2023-02-28T14:52:29;6.63;;;3.88;;
75758;SDS011;64371;47.566;19.086;2023-02-28T14:55:36;6.75;;;3.75;;
75758;SDS011;64371;47.566;19.086;2023-02-28T14:58:42;11.10;;;4.30;;
75758;SDS011;64371;47.566;19.086;2023-02-28T15:05:39;8.00;;;3.70;;
75758;SDS011;64371;47.566;19.086;2023-02-28T15:12:23;8.90;;;4.20;;
75758;SDS011;64371;47.566;19.086;2023-02-28T15:22:28;7.70;;;3.50;;
75758;SDS011;64371;47.566;19.086;2023-02-28T15:25:39;6.53;;;3.03;;
75758;SDS011;64371;47.566;19.086;2023-02-28T15:28:52;7.47;;;2.78;;
75758;SDS011;64371;47.566;19.086;2023-02-28T15:32:05;6.00;;;3.47;;
75758;SDS011;64371;47.566;19.086;2023-02-28T15:38:37;7.00;;;3.03;;
75758;SDS011;64371;47.566;19.086;2023-02-28T15:41:46;3.95;;;2.42;;
75758;SDS011;64371;47.566;19.086;2023-02-28T15:45:02;9.32;;;3.90;;
75758;SDS011;64371;47.566;19.086;2023-02-28T15:48:20;11.85;;;5.47;;
75758;SDS011;64371;47.566;19.086;2023-02-28T15:51:32;9.25;;;5.00;;
75758;SDS011;64371;47.566;19.086;2023-02-28T15:54:42;8.17;;;3.93;;
75758;SDS011;64371;47.566;19.086;2023-02-28T15:57:53;7.32;;;3.42;;
75758;SDS011;64371;47.566;19.086;2023-02-28T16:04:20;11.43;;;5.63;;
75758;SDS011;64371;47.566;19.086;2023-02-28T16:07:37;11.20;;;5.40;;
75758;SDS011;64371;47.566;19.086;2023-02-28T16:10:45;6.80;;;3.43;;
75758;SDS011;64371;47.566;19.086;2023-02-28T16:13:55;7.97;;;4.40;;
75758;SDS011;64371;47.566;19.086;2023-02-28T16:17:27;10.50;;;4.32;;
75758;SDS011;64371;47.566;19.086;2023-02-28T16:20:32;9.75;;;5.10;;
75758;SDS011;64371;47.566;19.086;2023-02-28T16:23:38;11.48;;;4.15;;
75758;SDS011;64371;47.566;19.086;2023-02-28T16:26:46;7.17;;;3.33;;
75758;SDS011;64371;47.566;19.086;2023-02-28T16:29:58;8.50;;;3.83;;
75758;SDS011;64371;47.566;19.086;2023-02-28T16:33:02;9.48;;;4.38;;
75758;SDS011;64371;47.566;19.086;2023-02-28T16:36:18;6.28;;;3.30;;
75758;SDS011;64371;47.566;19.086;2023-02-28T16:39:34;8.23;;;3.50;;
75758;SDS011;64371;47.566;19.086;2023-02-28T16:42:38;17.93;;;6.10;;
75758;SDS011;64371;47.566;19.086;2023-02-28T16:45:53;12.95;;;5.15;;
75758;SDS011;64371;47.566;19.086;2023-02-28T16:49:02;9.95;;;4.72;;
75758;SDS011;64371;47.566;19.086;2023-02-28T16:52:07;8.38;;;4.47;;
75758;SDS011;64371;47.566;19.086;2023-02-28T16:55:16;9.45;;;3.53;;
75758;SDS011;64371;47.566;19.086;2023-02-28T16:58:19;12.07;;;5.23;;
75758;SDS011;64371;47.566;19.086;2023-02-28T17:01:30;11.13;;;4.22;;
75758;SDS011;64371;47.566;19.086;2023-02-28T17:04:38;10.13;;;3.90;;
75758;SDS011;64371;47.566;19.086;2023-02-28T17:07:40;11.93;;;4.68;;
75758;SDS011;64371;47.566;19.086;2023-02-28T17:10:50;6.13;;;2.47;;
75758;SDS011;64371;47.566;19.086;2023-02-28T17:13:57;13.37;;;5.83;;
75758;SDS011;64371;47.566;19.086;2023-02-28T17:17:06;8.80;;;4.13;;
75758;SDS011;64371;47.566;19.086;2023-02-28T17:20:19;9.77;;;3.75;;
75758;SDS011;64371;47.566;19.086;2023-02-28T17:23:33;10.73;;;4.70;;
75758;SDS011;64371;47.566;19.086;2023-02-28T17:26:50;13.50;;;5.85;;
75758;SDS011;64371;47.566;19.086;2023-02-28T17:29:59;10.43;;;3.30;;
75758;SDS011;64371;47.566;19.086;2023-02-28T17:33:03;10.10;;;4.80;;
75758;SDS011;64371;47.566;19.086;2023-02-28T17:36:17;14.55;;;6.35;;
75758;SDS011;64371;47.566;19.086;2023-02-28T17:39:31;9.32;;;4.10;;
75758;SDS011;64371;47.566;19.086;2023-02-28T17:42:38;13.05;;;6.47;;
75758;SDS011;64371;47.566;19.086;2023-02-28T17:45:46;10.67;;;4.57;;
75758;SDS011;64371;47.566;19.086;2023-02-28T17:49:08;6.45;;;3.33;;
75758;SDS011;64371;47.566;19.086;2023-02-28T17:52:10;18.35;;;8.02;;
75758;SDS011;64371;47.566;19.086;2023-02-28T17:55:16;7.57;;;3.97;;
75758;SDS011;64371;47.566;19.086;2023-02-28T17:58:20;12.73;;;5.40;;
75758;SDS011;64371;47.566;19.086;2023-02-28T18:01:24;11.57;;;5.03;;
75758;SDS011;64371;47.566;19.086;2023-02-28T18:04:32;9.40;;;3.80;;
75758;SDS011;64371;47.566;19.086;2023-02-28T18:07:36;14.55;;;5.22;;
75758;SDS011;64371;47.566;19.086;2023-02-28T18:10:44;9.48;;;4.50;;
75758;SDS011;64371;47.566;19.086;2023-02-28T18:14:08;18.15;;;6.25;;
75758;SDS011;64371;47.566;19.086;2023-02-28T18:17:24;15.40;;;6.73;;
75758;SDS011;64371;47.566;19.086;2023-02-28T18:20:26;11.25;;;5.78;;
75758;SDS011;64371;47.566;19.086;2023-02-28T18:23:31;14.80;;;7.13;;
75758;SDS011;64371;47.566;19.086;2023-02-28T18:26:34;12.32;;;5.90;;
75758;SDS011;64371;47.566;19.086;2023-02-28T18:29:43;18.90;;;5.55;;
75758;SDS011;64371;47.566;19.086;2023-02-28T18:32:51;9.27;;;3.93;;
75758;SDS011;64371;47.566;19.086;2023-02-28T18:35:54;16.92;;;7.78;;
75758;SDS011;64371;47.566;19.086;2023-02-28T18:39:28;10.02;;;3.30;;
75758;SDS011;64371;47.566;19.086;2023-02-28T18:42:31;11.93;;;5.50;;
75758;SDS011;64371;47.566;19.086;2023-02-28T18:45:34;6.88;;;3.20;;
75758;SDS011;64371;47.566;19.086;2023-02-28T18:48:42;12.07;;;4.97;;
75758;SDS011;64371;47.566;19.086;2023-02-28T18:52:08;7.95;;;3.55;;
75758;SDS011;64371;47.566;19.086;2023-02-28T18:55:10;7.63;;;3.22;;
75758;SDS011;64371;47.566;19.086;2023-02-28T18:58:43;10.48;;;5.30;;
75758;SDS011;64371;47.566;19.086;2023-02-28T19:01:54;8.25;;;3.97;;
75758;SDS011;64371;47.566;19.086;2023-02-28T19:05:03;9.20;;;4.17;;
75758;SDS011;64371;47.566;19.086;2023-02-28T19:08:06;9.02;;;4.55;;
75758;SDS011;64371;47.566;19.086;2023-02-28T19:11:16;15.57;;;7.20;;
75758;SDS011;64371;47.566;19.086;2023-02-28T19:14:33;11.40;;;5.35;;
75758;SDS011;64371;47.566;19.086;2023-02-28T19:17:41;7.72;;;3.63;;
75758;SDS011;64371;47.566;19.086;2023-02-28T19:20:50;11.27;;;5.63;;
75758;SDS011;64371;47.566;19.086;2023-02-28T19:23:57;9.98;;;4.78;;
75758;SDS011;64371;47.566;19.086;2023-02-28T19:27:05;14.27;;;6.05;;
75758;SDS011;64371;47.566;19.086;2023-02-28T19:30:17;10.25;;;4.85;;
75758;SDS011;64371;47.566;19.086;2023-02-28T19:33:27;13.52;;;6.43;;
75758;SDS011;64371;47.566;19.086;2023-02-28T19:36:35;13.60;;;6.27;;
75758;SDS011;64371;47.566;19.086;2023-02-28T19:39:38;12.60;;;5.82;;
75758;SDS011;64371;47.566;19.086;2023-02-28T19:42:47;7.53;;;3.28;;
75758;SDS011;64371;47.566;19.086;2023-02-28T19:45:58;11.65;;;5.30;;
75758;SDS011;64371;47.566;19.086;2023-02-28T19:49:08;14.60;;;7.22;;
75758;SDS011;64371;47.566;19.086;2023-02-28T19:52:13;17.03;;;7.23;;
75758;SDS011;64371;47.566;19.086;2023-02-28T19:55:16;15.93;;;8.23;;
75758;SDS011;64371;47.566;19.086;2023-02-28T19:58:23;15.75;;;8.18;;
75758;SDS011;64371;47.566;19.086;2023-02-28T20:01:25;18.60;;;8.35;;
75758;SDS011;64371;47.566;19.086;2023-02-28T20:04:30;15.70;;;7.80;;
75758;SDS011;64371;47.566;19.086;2023-02-28T20:07:43;14.73;;;7.80;;
75758;SDS011;64371;47.566;19.086;2023-02-28T20:10:51;15.40;;;6.90;;
75758;SDS011;64371;47.566;19.086;2023-02-28T20:14:11;14.05;;;7.20;;
75758;SDS011;64371;47.566;19.086;2023-02-28T20:17:17;16.83;;;8.18;;
75758;SDS011;64371;47.566;19.086;2023-02-28T20:20:22;16.83;;;8.07;;
75758;SDS011;64371;47.566;19.086;2023-02-28T20:23:36;16.40;;;8.07;;
75758;SDS011;64371;47.566;19.086;2023-02-28T20:26:43;15.73;;;8.25;;
75758;SDS011;64371;47.566;19.086;2023-02-28T20:29:56;16.02;;;8.57;;
75758;SDS011;64371;47.566;19.086;2023-02-28T20:32:59;15.55;;;8.05;;
75758;SDS011;64371;47.566;19.086;2023-02-28T20:36:05;20.88;;;9.02;;
75758;SDS011;64371;47.566;19.086;2023-02-28T20:39:14;16.17;;;8.37;;
75758;SDS011;64371;47.566;19.086;2023-02-28T20:42:17;15.45;;;8.23;;
75758;SDS011;64371;47.566;19.086;2023-02-28T20:45:20;17.30;;;8.85;;
75758;SDS011;64371;47.566;19.086;2023-02-28T20:48:28;19.52;;;10.45;;
75758;SDS011;64371;47.566;19.086;2023-02-28T20:51:41;19.85;;;8.85;;
75758;SDS011;64371;47.566;19.086;2023-02-28T20:54:51;16.53;;;8.57;;
75758;SDS011;64371;47.566;19.086;2023-02-28T20:57:53;30.75;;;11.85;;
75758;SDS011;64371;47.566;19.086;2023-02-28T21:01:02;21.45;;;12.15;;
75758;SDS011;64371;47.566;19.086;2023-02-28T21:04:13;20.63;;;10.70;;
75758;SDS011;64371;47.566;19.086;2023-02-28T21:07:16;18.98;;;10.13;;
75758;SDS011;64371;47.566;19.086;2023-02-28T21:10:21;18.63;;;10.47;;
75758;SDS011;64371;47.566;19.086;2023-02-28T21:13:23;20.85;;;10.88;;
75758;SDS011;64371;47.566;19.086;2023-02-28T21:16:29;20.98;;;10.43;;
75758;SDS011;64371;47.566;19.086;2023-02-28T21:19:59;20.70;;;10.07;;